Time;durP1;ratioP1;P1;durP2;ratioP2;P2;SDS_P1;SDS_P2;PMS_P1;PMS_P2;Temp;Humidity;BMP_temperature;BMP_pressure;BME280_temperature;BME280_humidity;BME280_pressure;Samples;Min_cycle;Max_cycle;Signal;HPM_P1;HPM_P2
2021/09/09 00:01:06;;;;;;;9.73;8.33;;;17.20;99.90;;;;;;5026388;28;20230;-61
2021/09/09 00:03:37;;;;;;;8.77;7.87;;;17.20;99.90;;;;;;5027174;28;20274;-63
2021/09/09 00:06:05;;;;;;;9.10;8.00;;;17.20;99.90;;;;;;5026949;28;20606;-62
2021/09/09 00:08:35;;;;;;;11.23;8.20;;;17.20;99.90;;;;;;5026546;28;20231;-62
2021/09/09 00:11:05;;;;;;;10.10;8.80;;;17.30;99.90;;;;;;5026733;28;20266;-62
2021/09/09 00:13:35;;;;;;;9.97;8.87;;;17.30;99.90;;;;;;5026847;28;20729;-62
2021/09/09 00:16:04;;;;;;;9.80;8.63;;;17.30;99.90;;;;;;5026328;28;20265;-62
2021/09/09 00:18:34;;;;;;;9.10;8.30;;;17.30;99.90;;;;;;5026932;28;20260;-62
2021/09/09 00:21:03;;;;;;;9.30;8.17;;;17.30;99.90;;;;;;5026341;28;20230;-63
2021/09/09 00:23:31;;;;;;;10.00;9.00;;;17.40;99.90;;;;;;5027362;28;20817;-62
2021/09/09 00:26:03;;;;;;;10.30;8.67;;;17.30;99.90;;;;;;5027010;28;20719;-62
2021/09/09 00:28:32;;;;;;;10.60;9.03;;;17.40;99.90;;;;;;5026019;28;20323;-62
2021/09/09 00:31:02;;;;;;;10.60;9.13;;;17.30;99.90;;;;;;5026252;28;20247;-64
2021/09/09 00:33:30;;;;;;;10.40;9.30;;;17.20;99.90;;;;;;5026987;28;20237;-62
2021/09/09 00:36:00;;;;;;;12.20;8.90;;;17.30;99.90;;;;;;5026865;28;20245;-62
2021/09/09 00:38:28;;;;;;;10.90;9.80;;;17.30;99.90;;;;;;5026749;28;20301;-62
2021/09/09 00:40:56;;;;;;;10.23;9.10;;;17.20;99.90;;;;;;5026148;28;20240;-62
2021/09/09 00:43:24;;;;;;;10.67;9.57;;;17.30;99.90;;;;;;5026655;28;20606;-62
2021/09/09 00:45:54;;;;;;;11.20;9.07;;;17.30;99.90;;;;;;5026755;28;20252;-62
2021/09/09 00:48:22;;;;;;;10.47;9.47;;;17.30;99.90;;;;;;5026577;28;20422;-62
2021/09/09 00:50:51;;;;;;;11.47;9.77;;;17.20;99.90;;;;;;5026295;28;20325;-62
2021/09/09 00:53:21;;;;;;;10.60;9.40;;;17.20;99.90;;;;;;5026597;28;20320;-62
2021/09/09 00:55:50;;;;;;;10.27;9.10;;;17.20;99.90;;;;;;5026447;28;20244;-63
2021/09/09 00:58:18;;;;;;;11.30;9.20;;;17.20;99.90;;;;;;5026306;28;20234;-63
2021/09/09 01:00:46;;;;;;;10.00;9.07;;;17.20;99.90;;;;;;5025180;28;20236;-63
2021/09/09 01:03:15;;;;;;;11.63;8.97;;;17.10;99.90;;;;;;5014135;28;20230;-62
2021/09/09 01:05:43;;;;;;;10.80;8.60;;;17.00;99.90;;;;;;5025216;28;20242;-62
2021/09/09 01:08:11;;;;;;;13.03;9.27;;;17.00;99.90;;;;;;5025777;28;20320;-61
2021/09/09 01:10:41;;;;;;;9.60;8.70;;;17.00;99.90;;;;;;5024644;28;20253;-62
2021/09/09 01:13:10;;;;;;;10.50;9.13;;;16.90;99.90;;;;;;5025042;28;20263;-63
2021/09/09 01:15:41;;;;;;;10.93;9.53;;;16.80;99.90;;;;;;5025334;28;20253;-63
2021/09/09 01:18:11;;;;;;;10.37;8.40;;;16.80;99.90;;;;;;5024544;28;20240;-62
2021/09/09 01:20:41;;;;;;;9.67;8.77;;;16.80;99.90;;;;;;5024923;28;20245;-63
2021/09/09 01:23:10;;;;;;;9.23;8.33;;;16.80;99.90;;;;;;5024573;28;20242;-62
2021/09/09 01:25:39;;;;;;;9.43;8.40;;;16.70;99.90;;;;;;5024976;28;20727;-62
2021/09/09 01:28:07;;;;;;;9.67;8.63;;;16.80;99.90;;;;;;5026125;28;20237;-61
2021/09/09 01:30:38;;;;;;;10.80;8.93;;;16.80;99.90;;;;;;5028360;28;20240;-63
2021/09/09 01:33:06;;;;;;;10.33;9.33;;;16.70;99.90;;;;;;5028468;28;20240;-63
2021/09/09 01:35:34;;;;;;;10.50;9.43;;;16.70;99.90;;;;;;5028570;28;20233;-62
2021/09/09 01:38:02;;;;;;;10.03;8.87;;;16.70;99.90;;;;;;5028683;28;20319;-63
2021/09/09 01:40:31;;;;;;;11.07;9.90;;;16.70;99.90;;;;;;5028430;28;20327;-62
2021/09/09 01:43:01;;;;;;;10.27;9.00;;;16.70;99.90;;;;;;5028151;28;20664;-63
2021/09/09 01:45:29;;;;;;;9.77;8.77;;;16.70;99.90;;;;;;5028696;28;20234;-61
2021/09/09 01:47:57;;;;;;;10.93;9.83;;;16.80;99.90;;;;;;5028261;28;20666;-63
2021/09/09 01:50:26;;;;;;;11.10;9.83;;;16.80;99.90;;;;;;5027585;28;20905;-63
2021/09/09 01:52:54;;;;;;;11.33;10.23;;;16.70;99.90;;;;;;5028663;28;20237;-61
2021/09/09 01:55:23;;;;;;;11.37;10.17;;;16.70;99.90;;;;;;5029831;28;20248;-62
2021/09/09 01:57:51;;;;;;;12.27;10.90;;;16.60;99.90;;;;;;5029705;28;20260;-61
2021/09/09 02:00:20;;;;;;;11.23;10.10;;;16.60;99.90;;;;;;5029375;28;20724;-62
2021/09/09 02:02:48;;;;;;;10.50;9.30;;;16.70;99.90;;;;;;5039231;28;20635;-62
2021/09/09 02:05:17;;;;;;;11.37;10.17;;;16.80;99.90;;;;;;5034919;28;20231;-63
2021/09/09 02:07:45;;;;;;;11.40;10.03;;;16.80;99.90;;;;;;5044834;28;20318;-62
2021/09/09 02:10:19;;;;;;;12.27;10.77;;;16.80;99.90;;;;;;5040848;28;20232;-61
2021/09/09 02:12:48;;;;;;;11.57;10.30;;;16.80;99.90;;;;;;5040971;28;20242;-62
2021/09/09 02:15:17;;;;;;;11.13;10.03;;;16.80;99.90;;;;;;5036882;28;20289;-61
2021/09/09 02:17:46;;;;;;;12.27;10.73;;;16.80;99.90;;;;;;5032908;28;20717;-63
2021/09/09 02:20:14;;;;;;;12.40;11.10;;;16.80;99.90;;;;;;5040057;28;20354;-63
2021/09/09 02:22:43;;;;;;;12.43;11.13;;;16.70;99.90;;;;;;5034506;28;20239;-61
2021/09/09 02:25:11;;;;;;;12.47;11.17;;;16.60;99.90;;;;;;5039864;28;20629;-62
2021/09/09 02:27:40;;;;;;;12.63;10.77;;;16.60;99.90;;;;;;5043102;28;20243;-62
2021/09/09 02:30:09;;;;;;;11.40;10.30;;;16.50;99.90;;;;;;5042740;28;20696;-62
2021/09/09 02:32:38;;;;;;;11.80;10.57;;;16.60;99.90;;;;;;5039422;28;20243;-63
2021/09/09 02:35:09;;;;;;;11.20;10.10;;;16.70;99.90;;;;;;5045802;28;20636;-62
2021/09/09 02:37:38;;;;;;;11.17;10.07;;;16.70;99.90;;;;;;5042170;28;20245;-61
2021/09/09 02:40:08;;;;;;;12.37;11.23;;;16.60;99.90;;;;;;5042887;28;20229;-62
2021/09/09 02:42:37;;;;;;;11.63;10.43;;;16.70;99.90;;;;;;5038686;28;20621;-61
2021/09/09 02:45:06;;;;;;;12.37;11.07;;;16.70;99.90;;;;;;5041278;28;20269;-61
2021/09/09 02:47:34;;;;;;;13.97;11.17;;;16.70;99.90;;;;;;5039737;28;20237;-62
2021/09/09 02:50:03;;;;;;;11.87;10.50;;;16.60;99.90;;;;;;5042400;28;20774;-62
2021/09/09 02:52:33;;;;;;;13.20;10.60;;;16.50;99.90;;;;;;5036023;28;20235;-63
2021/09/09 02:55:01;;;;;;;11.57;10.40;;;16.60;99.90;;;;;;5040708;28;20313;-63
2021/09/09 02:57:30;;;;;;;11.47;10.37;;;16.60;99.90;;;;;;5037835;28;20659;-62
2021/09/09 02:59:58;;;;;;;10.60;9.60;;;16.70;99.90;;;;;;5039176;28;20294;-63
2021/09/09 03:02:26;;;;;;;11.27;10.10;;;16.60;99.90;;;;;;5037944;28;20740;-62
2021/09/09 03:04:54;;;;;;;12.37;11.03;;;16.60;99.90;;;;;;5040897;28;20298;-61
2021/09/09 03:07:22;;;;;;;11.60;10.30;;;16.50;99.90;;;;;;5041957;28;20244;-63
2021/09/09 03:09:52;;;;;;;11.53;10.37;;;16.50;99.90;;;;;;5034803;28;20248;-62
2021/09/09 03:12:20;;;;;;;12.23;10.60;;;16.60;99.90;;;;;;5027797;28;20239;-62
2021/09/09 03:14:48;;;;;;;11.10;10.00;;;16.50;99.90;;;;;;5041462;28;20242;-62
2021/09/09 03:17:16;;;;;;;12.70;10.50;;;16.60;99.90;;;;;;5030418;28;20328;-62
2021/09/09 03:19:44;;;;;;;12.20;10.90;;;16.60;99.90;;;;;;5035722;28;20349;-62
2021/09/09 03:22:12;;;;;;;13.13;11.13;;;16.50;99.90;;;;;;5039617;28;20267;-62
2021/09/09 03:24:40;;;;;;;11.73;10.57;;;16.50;99.90;;;;;;5029217;28;20579;-61
2021/09/09 03:27:10;;;;;;;14.13;11.07;;;16.40;99.90;;;;;;5041369;28;20279;-63
2021/09/09 03:29:38;;;;;;;12.47;10.57;;;16.40;99.90;;;;;;5034460;28;20228;-63
2021/09/09 03:32:07;;;;;;;12.07;10.97;;;16.40;99.90;;;;;;5035071;28;20233;-63
2021/09/09 03:34:35;;;;;;;11.00;9.90;;;16.40;99.90;;;;;;5041375;28;20224;-61
2021/09/09 03:37:03;;;;;;;10.37;9.20;;;16.30;99.90;;;;;;5044636;28;20324;-62
2021/09/09 03:39:32;;;;;;;12.40;10.80;;;16.30;99.90;;;;;;5044115;28;20341;-63
2021/09/09 03:42:00;;;;;;;12.07;10.77;;;16.20;99.90;;;;;;5038842;28;20247;-62
2021/09/09 03:44:30;;;;;;;10.77;9.67;;;16.20;99.90;;;;;;5036912;28;20323;-62
2021/09/09 03:46:58;;;;;;;10.70;9.70;;;16.20;99.90;;;;;;5037363;28;20563;-61
2021/09/09 03:49:26;;;;;;;11.53;10.33;;;16.20;99.90;;;;;;5032464;28;20232;-62
2021/09/09 03:51:54;;;;;;;11.53;10.40;;;16.10;99.90;;;;;;5034797;28;20260;-61
2021/09/09 03:54:22;;;;;;;13.53;11.13;;;16.10;99.90;;;;;;5042805;28;20596;-63
2021/09/09 03:56:50;;;;;;;10.97;9.93;;;16.00;99.90;;;;;;5038424;28;20290;-61
2021/09/09 03:59:18;;;;;;;11.87;10.10;;;16.00;99.90;;;;;;5040006;28;20712;-63
2021/09/09 04:01:48;;;;;;;12.13;10.93;;;16.00;99.90;;;;;;5040334;28;20259;-62
2021/09/09 04:04:16;;;;;;;11.33;10.23;;;16.00;99.90;;;;;;5039222;28;20593;-62
2021/09/09 04:06:44;;;;;;;12.00;10.80;;;15.90;99.90;;;;;;5034025;28;20233;-62
2021/09/09 04:09:13;;;;;;;11.60;10.20;;;15.90;99.90;;;;;;5043221;28;20225;-61
2021/09/09 04:11:41;;;;;;;12.17;10.40;;;15.90;99.90;;;;;;5032448;28;20556;-62
2021/09/09 04:14:11;;;;;;;11.73;10.60;;;15.90;99.90;;;;;;5035159;28;20238;-63
2021/09/09 04:16:39;;;;;;;11.67;10.47;;;15.90;99.90;;;;;;5038550;28;20224;-63
2021/09/09 04:19:09;;;;;;;12.07;10.90;;;15.90;99.90;;;;;;5039776;28;20268;-63
2021/09/09 04:21:37;;;;;;;12.00;10.70;;;15.80;99.90;;;;;;5039164;28;20277;-62
2021/09/09 04:24:06;;;;;;;13.50;11.17;;;15.70;99.90;;;;;;5035677;28;20251;-62
2021/09/09 04:26:34;;;;;;;12.90;11.23;;;15.80;99.90;;;;;;5037706;28;20242;-63
2021/09/09 04:29:04;;;;;;;14.70;10.93;;;15.80;99.90;;;;;;5036352;28;20247;-62
2021/09/09 04:31:34;;;;;;;12.30;11.03;;;15.90;99.90;;;;;;5034401;28;20239;-63
2021/09/09 04:34:02;;;;;;;12.27;10.73;;;15.90;99.90;;;;;;5031644;28;20287;-63
2021/09/09 04:36:32;;;;;;;13.07;11.67;;;15.90;99.90;;;;;;5033939;28;20750;-62
2021/09/09 04:39:00;;;;;;;16.30;12.33;;;15.80;99.90;;;;;;5031957;28;20333;-63
2021/09/09 04:41:28;;;;;;;14.03;11.63;;;15.90;99.90;;;;;;5040131;28;20659;-63
2021/09/09 04:43:56;;;;;;;16.00;12.87;;;15.90;99.90;;;;;;5037687;28;20302;-62
2021/09/09 04:46:24;;;;;;;14.17;12.30;;;16.00;99.90;;;;;;5016345;28;20361;-63
2021/09/09 04:48:53;;;;;;;14.50;13.00;;;15.90;99.90;;;;;;5022662;28;20715;-62
2021/09/09 04:51:21;;;;;;;15.00;12.97;;;15.90;99.90;;;;;;5024996;28;20232;-62
2021/09/09 04:53:50;;;;;;;14.40;12.90;;;15.80;99.90;;;;;;5025610;28;20260;-62
2021/09/09 04:56:19;;;;;;;15.93;13.60;;;15.70;99.90;;;;;;5024328;28;20589;-62
2021/09/09 04:58:47;;;;;;;16.70;13.17;;;15.80;99.90;;;;;;5023311;28;20677;-62
2021/09/09 05:01:20;;;;;;;17.44;12.00;;;15.70;99.90;;;;;;1471252;28;10004032;-62
2021/09/09 05:03:48;;;;;;;15.83;13.00;;;15.80;99.90;;;;;;4675800;28;10001618;-63
2021/09/09 05:06:17;;;;;;;14.87;13.40;;;15.80;99.90;;;;;;5013141;28;20242;-63
2021/09/09 05:08:45;;;;;;;14.20;12.70;;;15.80;99.90;;;;;;5016588;28;20240;-62
2021/09/09 05:11:16;;;;;;;14.37;11.63;;;15.80;99.90;;;;;;5020607;28;20224;-63
2021/09/09 05:13:45;;;;;;;13.80;12.47;;;15.80;99.90;;;;;;5018147;28;20307;-63
2021/09/09 05:16:13;;;;;;;17.03;12.97;;;15.80;99.90;;;;;;5021245;28;20236;-62
2021/09/09 05:18:42;;;;;;;16.97;12.80;;;15.90;99.90;;;;;;5019255;28;20229;-63
2021/09/09 05:21:10;;;;;;;14.90;12.87;;;16.00;99.90;;;;;;5016964;28;20499;-62
2021/09/09 05:23:38;;;;;;;15.30;13.70;;;16.00;99.90;;;;;;5015734;28;20241;-63
2021/09/09 05:26:06;;;;;;;14.73;12.30;;;16.00;99.90;;;;;;5023654;28;20243;-63
2021/09/09 05:28:36;;;;;;;14.37;12.93;;;16.20;99.90;;;;;;5011843;28;20815;-62
2021/09/09 05:31:04;;;;;;;15.07;13.47;;;16.20;99.90;;;;;;5010427;28;20238;-62
2021/09/09 05:33:32;;;;;;;14.83;13.33;;;16.20;99.90;;;;;;5013139;28;20264;-63
2021/09/09 05:36:00;;;;;;;14.47;12.97;;;16.30;99.90;;;;;;5015501;28;20256;-62
2021/09/09 05:38:28;;;;;;;13.90;12.40;;;16.20;99.90;;;;;;5021397;28;20756;-63
2021/09/09 05:40:56;;;;;;;14.17;11.97;;;16.30;99.90;;;;;;5020625;28;20235;-63
2021/09/09 05:43:24;;;;;;;15.90;13.10;;;16.40;99.90;;;;;;5021051;28;20241;-63
2021/09/09 05:45:54;;;;;;;16.37;14.13;;;16.50;99.90;;;;;;5014311;28;20600;-63
2021/09/09 05:48:23;;;;;;;14.90;13.30;;;16.50;99.90;;;;;;5017703;28;20257;-62
2021/09/09 05:50:51;;;;;;;13.70;12.30;;;16.50;99.90;;;;;;5013482;28;20250;-63
2021/09/09 05:53:19;;;;;;;13.93;12.53;;;16.50;99.90;;;;;;5014179;28;20320;-63
2021/09/09 05:55:47;;;;;;;13.20;11.90;;;16.60;99.90;;;;;;5017383;28;20645;-63
2021/09/09 05:58:15;;;;;;;12.50;11.20;;;16.70;99.90;;;;;;5018318;28;20229;-63
2021/09/09 06:00:43;;;;;;;13.50;12.10;;;16.70;99.90;;;;;;5010081;28;20262;-64
2021/09/09 06:03:14;;;;;;;15.07;11.83;;;16.80;99.90;;;;;;5020971;28;20651;-62
2021/09/09 06:05:42;;;;;;;12.13;10.97;;;16.90;99.90;;;;;;5018827;28;20233;-63
2021/09/09 06:08:11;;;;;;;13.23;11.73;;;17.10;99.90;;;;;;5015253;28;20242;-63
2021/09/09 06:10:39;;;;;;;13.93;12.53;;;17.20;99.90;;;;;;5018583;28;20268;-63
2021/09/09 06:13:07;;;;;;;14.23;12.43;;;17.20;99.90;;;;;;5022404;28;20602;-64
2021/09/09 06:15:35;;;;;;;13.50;12.10;;;17.40;99.90;;;;;;5016128;28;20324;-62
2021/09/09 06:18:04;;;;;;;14.83;13.27;;;17.50;99.90;;;;;;5019177;28;20720;-64
2021/09/09 06:20:33;;;;;;;15.33;13.47;;;17.70;99.90;;;;;;5014584;28;20727;-63
2021/09/09 06:23:01;;;;;;;14.70;13.00;;;17.80;99.90;;;;;;5018232;28;20249;-64
2021/09/09 06:25:29;;;;;;;15.47;13.70;;;17.90;99.90;;;;;;5021392;28;20239;-63
2021/09/09 06:27:57;;;;;;;14.40;12.90;;;18.00;99.90;;;;;;5018886;28;20265;-63
2021/09/09 06:30:26;;;;;;;15.13;13.13;;;18.10;99.90;;;;;;5017407;28;20237;-63
2021/09/09 06:32:54;;;;;;;17.63;13.90;;;18.20;99.90;;;;;;5015027;28;20266;-63
2021/09/09 06:35:22;;;;;;;14.83;13.30;;;18.30;99.90;;;;;;5018935;28;20241;-63
2021/09/09 06:37:54;;;;;;;15.37;13.80;;;18.50;99.90;;;;;;5024133;28;20247;-63
2021/09/09 06:40:22;;;;;;;14.40;12.97;;;18.60;99.90;;;;;;5009786;28;20362;-63
2021/09/09 06:42:50;;;;;;;14.73;13.23;;;18.80;99.90;;;;;;5024720;28;20322;-63
2021/09/09 06:45:19;;;;;;;14.17;12.70;;;18.90;99.90;;;;;;5013939;28;20234;-63
2021/09/09 06:47:48;;;;;;;14.60;13.13;;;19.10;99.90;;;;;;4997857;28;20532;-64
2021/09/09 06:50:16;;;;;;;13.83;12.40;;;19.30;99.90;;;;;;4996675;28;20235;-63
2021/09/09 06:52:45;;;;;;;15.40;13.07;;;19.50;99.90;;;;;;4998963;28;20243;-63
2021/09/09 06:55:15;;;;;;;13.40;12.00;;;19.60;99.90;;;;;;5013520;28;20627;-63
2021/09/09 06:57:43;;;;;;;13.03;11.73;;;19.80;99.90;;;;;;5010385;28;20703;-63
2021/09/09 07:00:12;;;;;;;13.47;12.07;;;20.00;99.90;;;;;;5008050;28;21043;-63
2021/09/09 07:02:40;;;;;;;13.30;11.90;;;20.10;99.90;;;;;;5007054;23;20279;-83
2021/09/09 07:05:10;;;;;;;14.20;12.70;;;20.30;99.90;;;;;;5013153;28;20243;-82
2021/09/09 07:07:39;;;;;;;12.43;10.97;;;20.40;99.90;;;;;;5007354;23;20780;-63
2021/09/09 07:10:08;;;;;;;13.50;12.20;;;20.40;99.90;;;;;;4994480;28;20267;-63
2021/09/09 07:12:38;;;;;;;14.87;12.80;;;20.60;99.90;;;;;;5002885;28;20276;-63
2021/09/09 07:15:07;;;;;;;14.83;12.00;;;20.80;99.90;;;;;;5000605;28;20639;-64
2021/09/09 07:17:36;;;;;;;13.00;11.63;;;21.00;99.90;;;;;;5000103;28;20229;-64
2021/09/09 07:20:05;;;;;;;13.57;11.73;;;21.20;99.90;;;;;;5005104;28;20244;-62
2021/09/09 07:22:33;;;;;;;12.50;11.20;;;21.30;99.90;;;;;;5005924;28;20237;-64
2021/09/09 07:25:01;;;;;;;13.03;11.73;;;21.60;99.90;;;;;;5014030;28;20255;-62
2021/09/09 07:27:29;;;;;;;13.33;12.03;;;21.60;99.90;;;;;;5010094;28;20591;-63
2021/09/09 07:29:59;;;;;;;13.10;11.23;;;21.80;99.90;;;;;;5013986;28;20240;-63
2021/09/09 07:32:27;;;;;;;12.13;10.87;;;22.00;99.90;;;;;;5004451;28;20240;-64
2021/09/09 07:34:55;;;;;;;13.23;11.43;;;22.10;99.90;;;;;;5009553;28;20243;-63
2021/09/09 07:37:24;;;;;;;12.33;11.13;;;22.30;99.90;;;;;;5014814;28;20247;-64
2021/09/09 07:39:52;;;;;;;11.70;10.67;;;22.50;99.90;;;;;;4998795;28;20253;-63
2021/09/09 07:42:20;;;;;;;12.37;10.63;;;22.80;99.90;;;;;;5006384;28;20259;-62
2021/09/09 07:44:49;;;;;;;13.40;10.63;;;23.00;99.90;;;;;;5004398;28;20229;-63
2021/09/09 07:47:19;;;;;;;15.87;11.43;;;23.10;99.90;;;;;;5001619;28;20236;-63
2021/09/09 07:49:47;;;;;;;15.00;12.03;;;23.20;99.90;;;;;;5013779;28;20229;-63
2021/09/09 07:52:15;;;;;;;12.60;10.90;;;23.30;99.90;;;;;;5009488;28;20894;-63
2021/09/09 07:54:43;;;;;;;16.13;10.83;;;23.40;99.90;;;;;;5011069;28;20264;-65
2021/09/09 07:57:11;;;;;;;13.40;11.37;;;23.30;99.90;;;;;;5000940;28;20236;-64
2021/09/09 07:59:39;;;;;;;12.13;10.93;;;23.30;99.90;;;;;;5011101;28;20855;-65
2021/09/09 08:02:07;;;;;;;15.33;10.77;;;23.40;99.90;;;;;;5006608;28;20233;-63
2021/09/09 08:04:37;;;;;;;13.30;10.97;;;23.60;99.90;;;;;;5011675;28;20261;-63
2021/09/09 08:07:05;;;;;;;11.47;10.03;;;23.70;99.90;;;;;;4996767;28;20238;-63
2021/09/09 08:09:33;;;;;;;12.13;10.93;;;23.80;99.90;;;;;;4994130;28;20717;-64
2021/09/09 08:12:02;;;;;;;14.37;10.50;;;24.10;99.90;;;;;;5005856;28;20242;-64
2021/09/09 08:14:31;;;;;;;14.27;10.80;;;24.10;99.90;;;;;;5001549;28;20269;-63
2021/09/09 08:17:00;;;;;;;11.27;10.07;;;24.20;99.90;;;;;;5007321;28;20725;-63
2021/09/09 08:19:28;;;;;;;11.07;9.97;;;24.20;99.90;;;;;;5014651;28;20260;-63
2021/09/09 08:21:57;;;;;;;13.00;10.20;;;24.10;99.90;;;;;;5012715;28;20317;-64
2021/09/09 08:24:25;;;;;;;17.07;11.23;;;24.20;99.90;;;;;;5023131;28;20233;-63
2021/09/09 08:26:53;;;;;;;14.77;10.63;;;24.20;99.90;;;;;;5025505;28;20248;-62
2021/09/09 08:29:21;;;;;;;11.43;9.50;;;24.40;99.90;;;;;;5022544;28;20243;-63
2021/09/09 08:31:49;;;;;;;11.57;8.80;;;24.60;99.90;;;;;;5011857;28;20299;-62
2021/09/09 08:34:18;;;;;;;18.40;10.80;;;25.00;99.90;;;;;;5025953;28;20226;-63
2021/09/09 08:36:46;;;;;;;11.03;9.87;;;25.00;99.90;;;;;;5018039;28;20257;-63
2021/09/09 08:39:15;;;;;;;14.47;10.53;;;25.20;99.90;;;;;;5006867;28;20598;-62
2021/09/09 08:41:43;;;;;;;10.87;9.47;;;25.30;99.90;;;;;;5020658;28;20231;-62
2021/09/09 08:44:12;;;;;;;13.67;9.93;;;25.40;99.90;;;;;;5024966;28;20234;-62
2021/09/09 08:46:41;;;;;;;15.00;10.03;;;25.60;99.90;;;;;;5025339;28;20651;-63
2021/09/09 08:49:09;;;;;;;13.40;9.17;;;25.40;99.90;;;;;;5023297;28;20230;-64
2021/09/09 08:51:37;;;;;;;14.97;9.10;;;25.40;99.90;;;;;;5023990;28;20245;-63
2021/09/09 08:54:07;;;;;;;11.53;9.33;;;25.60;99.90;;;;;;5024697;28;20644;-63
2021/09/09 08:56:36;;;;;;;9.80;8.80;;;25.70;99.90;;;;;;5008979;28;20737;-63
2021/09/09 08:59:05;;;;;;;9.63;8.67;;;25.90;99.90;;;;;;5013462;28;20705;-62
2021/09/09 09:01:33;;;;;;;14.70;10.10;;;26.10;99.90;;;;;;5018802;28;20247;-62
2021/09/09 09:04:06;;;;;;;11.07;9.20;;;25.90;99.90;;;;;;5024256;28;20239;-63
2021/09/09 09:06:38;;;;;;;11.27;8.40;;;26.10;99.90;;;;;;5018713;28;20323;-63
2021/09/09 09:09:13;;;;;;;11.67;10.27;;;26.20;99.90;;;;;;5023347;28;20297;-62
2021/09/09 09:11:45;;;;;;;12.10;9.40;;;26.20;99.90;;;;;;5024931;28;20235;-63
2021/09/09 09:14:15;;;;;;;9.17;8.20;;;26.50;99.90;;;;;;5009586;28;20240;-62
2021/09/09 09:16:45;;;;;;;10.43;9.27;;;26.90;99.90;;;;;;5021520;28;20370;-64
2021/09/09 09:19:14;;;;;;;11.57;9.10;;;26.60;99.90;;;;;;5010522;28;20236;-64
2021/09/09 09:21:46;;;;;;;10.33;8.50;;;26.60;99.90;;;;;;5010525;28;20235;-63
2021/09/09 09:24:18;;;;;;;10.60;9.13;;;26.50;99.90;;;;;;5005804;28;20240;-63
2021/09/09 09:27:11;;;;;;;10.83;8.57;;;26.50;99.90;;;;;;5020494;28;20609;-63
2021/09/09 09:29:42;;;;;;;10.30;9.27;;;26.70;99.90;;;;;;5016010;28;20240;-63
2021/09/09 09:32:16;;;;;;;10.63;8.47;;;26.60;99.90;;;;;;5008661;28;20233;-63
2021/09/09 09:34:46;;;;;;;9.57;8.57;;;27.20;99.90;;;;;;5020703;28;20294;-62
2021/09/09 09:37:21;;;;;;;9.40;8.50;;;27.20;99.90;;;;;;5018801;28;20236;-62
2021/09/09 09:39:50;;;;;;;9.10;8.03;;;27.40;99.90;;;;;;5012056;28;20247;-62
2021/09/09 09:42:26;;;;;;;11.30;8.30;;;27.70;99.90;;;;;;5012776;28;20218;-63
2021/09/09 09:45:09;;;;;;;10.97;8.00;;;27.90;99.90;;;;;;5008204;28;20600;-64
2021/09/09 09:47:38;;;;;;;10.47;8.03;;;27.90;99.90;;;;;;5013149;28;20237;-62
2021/09/09 09:50:21;;;;;;;8.73;7.82;;;28.00;99.90;;;;;;3961507;28;10002000;-63
2021/09/09 09:52:49;;;;;;;10.13;8.13;;;27.80;99.90;;;;;;2420751;28;10002024;-63
2021/09/09 09:55:17;;;;;;;11.53;8.10;;;27.60;99.90;;;;;;5009984;28;20342;-63
2021/09/09 09:57:56;;;;;;;9.23;7.53;;;27.50;99.90;;;;;;5010099;28;20244;-63
2021/09/09 10:00:24;;;;;;;11.73;7.93;;;27.70;99.90;;;;;;5006340;28;20291;-64
2021/09/09 10:02:55;;;;;;;12.20;7.73;;;27.60;99.90;;;;;;5007218;28;20430;-63
2021/09/09 10:05:24;;;;;;;11.33;7.30;;;27.60;99.90;;;;;;5009144;28;20253;-63
2021/09/09 10:07:52;;;;;;;8.60;7.70;;;28.10;99.90;;;;;;5008674;28;20244;-63
2021/09/09 10:10:21;;;;;;;8.07;7.30;;;28.60;99.90;;;;;;5007993;28;20298;-63
2021/09/09 10:12:50;;;;;;;10.37;7.53;;;28.90;99.90;;;;;;5008752;28;20664;-63
2021/09/09 10:15:21;;;;;;;9.33;7.60;;;28.90;99.90;;;;;;5016474;28;20241;-62
2021/09/09 10:17:59;;;;;;;9.60;7.93;;;29.10;99.90;;;;;;5006796;28;20334;-63
2021/09/09 10:20:32;;;;;;;9.50;7.93;;;29.00;99.90;;;;;;5005794;28;21018;-64
2021/09/09 10:23:03;;;;;;;8.53;7.33;;;29.00;99.90;;;;;;5007415;28;20319;-63
2021/09/09 10:25:47;;;;;;;8.50;7.03;;;29.20;99.90;;;;;;5010417;28;20894;-64
2021/09/09 10:28:47;;;;;;;8.40;7.50;;;29.30;99.90;;;;;;5007541;28;20700;-62
2021/09/09 10:31:20;;;;;;;9.60;7.90;;;29.40;99.90;;;;;;5006263;28;20335;-63
2021/09/09 10:33:50;;;;;;;8.23;7.17;;;29.60;99.90;;;;;;5011859;28;20241;-63
2021/09/09 10:36:38;;;;;;;9.23;7.80;;;29.80;99.90;;;;;;5023249;28;20234;-62
2021/09/09 10:39:07;;;;;;;8.90;7.70;;;29.60;99.90;;;;;;5024724;28;20260;-62
2021/09/09 10:41:36;;;;;;;8.17;7.37;;;29.80;99.90;;;;;;5020016;28;20658;-62
2021/09/09 10:44:07;;;;;;;9.90;7.73;;;29.90;99.90;;;;;;5010862;28;20233;-62
2021/09/09 10:46:38;;;;;;;11.53;8.17;;;29.60;99.90;;;;;;5016127;28;20242;-62
2021/09/09 10:49:16;;;;;;;8.73;7.93;;;29.20;99.90;;;;;;5011716;28;20236;-61
2021/09/09 10:52:08;;;;;;;8.90;7.83;;;29.10;99.90;;;;;;5017859;28;20331;-63
2021/09/09 10:55:01;;;;;;;8.93;7.20;;;29.60;99.90;;;;;;5009511;28;20241;-63
2021/09/09 10:57:29;;;;;;;8.97;8.00;;;29.80;99.90;;;;;;5017110;28;20335;-62
2021/09/09 10:59:57;;;;;;;8.83;8.03;;;30.20;99.90;;;;;;5015252;28;20268;-62
2021/09/09 11:02:27;;;;;;;10.63;7.97;;;30.50;99.90;;;;;;5015476;28;20237;-63
2021/09/09 11:05:03;;;;;;;9.87;7.40;;;30.70;99.90;;;;;;5015691;28;20329;-63
2021/09/09 11:07:32;;;;;;;7.87;7.17;;;31.10;99.90;;;;;;5017336;28;20236;-62
2021/09/09 11:10:02;;;;;;;9.13;7.93;;;31.10;99.90;;;;;;5016923;28;20648;-62
2021/09/09 11:12:38;;;;;;;9.57;7.93;;;30.90;99.90;;;;;;5018425;28;20271;-62
2021/09/09 11:15:09;;;;;;;7.60;6.90;;;30.80;99.90;;;;;;5015591;28;20249;-62
2021/09/09 11:17:40;;;;;;;8.47;7.67;;;31.10;99.90;;;;;;5024135;28;20243;-62
2021/09/09 11:20:10;;;;;;;8.87;8.00;;;31.20;99.90;;;;;;5023979;28;20531;-64
2021/09/09 11:22:40;;;;;;;9.90;7.87;;;31.20;99.90;;;;;;5023192;28;20248;-62
2021/09/09 11:25:18;;;;;;;8.67;7.50;;;31.30;99.90;;;;;;5023975;28;20294;-62
2021/09/09 11:27:47;;;;;;;9.13;8.23;;;31.50;99.90;;;;;;5017490;28;20240;-64
2021/09/09 11:30:17;;;;;;;8.67;7.70;;;31.50;99.90;;;;;;5018307;28;20233;-63
2021/09/09 11:35:39;;;;;;;8.47;7.67;;;31.40;99.90;;;;;;5033341;28;20688;-62
2021/09/09 11:38:07;;;;;;;9.70;7.83;;;31.20;99.90;;;;;;5021849;28;20254;-62
2021/09/09 11:40:35;;;;;;;8.87;7.73;;;30.90;99.90;;;;;;5010557;28;20499;-63
2021/09/09 11:43:04;;;;;;;8.30;7.50;;;30.70;99.90;;;;;;5015482;28;20643;-63
2021/09/09 11:45:33;;;;;;;8.77;7.97;;;30.70;99.90;;;;;;5012697;28;20241;-62
2021/09/09 11:48:05;;;;;;;11.43;8.10;;;30.30;99.90;;;;;;5015159;28;20236;-61
2021/09/09 11:50:47;;;;;;;9.07;7.50;;;30.40;99.90;;;;;;5015446;28;20245;-62
2021/09/09 11:53:22;;;;;;;8.63;7.60;;;30.00;99.90;;;;;;5013449;28;20240;-62
2021/09/09 11:55:52;;;;;;;8.60;7.80;;;30.10;99.90;;;;;;5017526;28;20600;-63
2021/09/09 11:58:36;;;;;;;8.97;7.90;;;29.90;99.90;;;;;;5014772;28;20263;-63
2021/09/09 12:01:08;;;;;;;8.63;7.70;;;30.00;99.90;;;;;;5013525;28;20707;-63
2021/09/09 12:03:37;;;;;;;9.07;7.20;;;30.10;99.90;;;;;;5008833;28;20301;-63
2021/09/09 12:06:08;;;;;;;8.30;7.50;;;29.90;99.90;;;;;;5001489;28;20237;-62
2021/09/09 12:08:39;;;;;;;8.40;7.30;;;29.90;99.90;;;;;;5004539;28;20656;-63
2021/09/09 12:11:09;;;;;;;8.63;7.73;;;30.00;99.90;;;;;;5010339;28;20325;-63
2021/09/09 12:13:40;;;;;;;8.67;7.43;;;29.70;99.90;;;;;;5008997;28;20339;-62
2021/09/09 12:16:17;;;;;;;8.70;6.93;;;29.60;99.90;;;;;;5009581;28;20241;-63
2021/09/09 12:18:48;;;;;;;8.53;7.63;;;29.60;99.90;;;;;;5004979;28;20245;-63
2021/09/09 12:21:19;;;;;;;8.67;7.70;;;29.60;99.90;;;;;;5009133;28;20228;-63
2021/09/09 12:24:01;;;;;;;8.57;7.50;;;29.60;99.90;;;;;;5011987;28;20239;-63
2021/09/09 12:26:30;;;;;;;8.60;7.80;;;29.50;99.90;;;;;;4999979;28;20245;-63
2021/09/09 12:28:58;;;;;;;8.43;7.63;;;29.30;99.90;;;;;;5009608;28;20245;-62
2021/09/09 12:31:34;;;;;;;8.97;8.07;;;29.20;99.90;;;;;;5008802;28;20241;-62
2021/09/09 12:34:12;;;;;;;8.57;7.60;;;29.20;99.90;;;;;;5008609;28;20241;-62
2021/09/09 12:36:44;;;;;;;9.20;7.37;;;29.20;99.90;;;;;;5004734;28;20327;-63
2021/09/09 12:39:13;;;;;;;8.43;7.53;;;29.10;99.90;;;;;;5010764;28;20338;-62
2021/09/09 12:41:41;;;;;;;8.33;7.53;;;29.20;99.90;;;;;;5002750;28;20745;-63
2021/09/09 12:44:12;;;;;;;8.10;7.30;;;29.30;99.90;;;;;;5005154;28;20287;-63
2021/09/09 12:46:43;;;;;;;9.90;6.90;;;29.30;99.90;;;;;;4994186;28;20701;-62
2021/09/09 12:49:13;;;;;;;10.23;7.30;;;29.20;99.90;;;;;;4995763;28;20842;-62